createdAt,value
2019-05-22T00:38:42.391Z,1.40
2019-05-22T01:58:02.343Z,1.40
2019-05-22T02:32:22.636Z,1.80
2019-05-22T02:39:12.772Z,1.80
2019-05-22T02:53:43.033Z,1.70
2019-05-22T02:56:50.872Z,2.03
2019-05-22T02:59:59.840Z,1.27
2019-05-22T03:03:19.764Z,1.23
2019-05-22T03:06:22.435Z,1.40
2019-05-22T04:36:09.969Z,1.43
2019-05-22T04:41:33.396Z,1.20
2019-05-22T04:45:03.546Z,2.93
2019-05-22T04:47:40.975Z,0.90
2019-05-22T04:54:12.490Z,1.30
2019-05-22T04:58:38.562Z,1.40
2019-05-22T05:01:18.648Z,1.70
2019-05-22T05:07:31.746Z,1.83
2019-05-22T05:10:34.902Z,1.60
2019-05-22T05:13:26.729Z,1.40
2019-05-22T05:16:32.206Z,1.27
2019-05-22T05:19:22.444Z,1.50
2019-05-22T05:22:21.828Z,1.50
2019-05-22T05:25:33.431Z,1.53
2019-05-22T05:28:47.741Z,1.50
2019-05-22T05:32:04.233Z,1.37
2019-05-22T05:35:34.445Z,1.67
2019-05-22T05:38:28.265Z,3.27
2019-05-22T05:41:11.572Z,1.80
2019-05-22T05:43:51.118Z,1.90
2019-05-22T05:46:45.381Z,1.60
2019-05-22T05:50:05.929Z,2.00
2019-05-22T05:52:58.626Z,1.60
2019-05-22T05:56:19.575Z,1.83
2019-05-22T05:59:10.789Z,2.20
2019-05-22T06:01:51.106Z,1.80
2019-05-22T06:04:36.689Z,1.83
2019-05-22T06:07:21.096Z,3.13
2019-05-22T06:10:40.804Z,1.53
2019-05-22T06:13:17.843Z,4.67
2019-05-22T06:16:35.753Z,4.37
2019-05-22T06:19:12.801Z,1.80
2019-05-22T06:21:50.420Z,2.20
2019-05-22T06:24:46.438Z,1.77
2019-05-22T06:27:30.700Z,3.20
2019-05-22T06:30:13.711Z,2.30
2019-05-22T06:33:43.880Z,2.40
2019-05-22T06:36:21.686Z,3.00
2019-05-22T06:39:04.876Z,3.30
2019-05-22T06:41:42.343Z,3.83
2019-05-22T06:44:37.082Z,3.17
2019-05-22T06:47:22.019Z,3.40
2019-05-22T06:50:43.120Z,4.07
2019-05-22T06:53:19.730Z,3.60
2019-05-22T06:56:02.422Z,3.63
2019-05-22T06:58:52.072Z,3.87
2019-05-22T07:01:29.594Z,4.60
2019-05-22T07:04:05.532Z,4.80
2019-05-22T07:06:43.626Z,3.90
2019-05-22T07:09:21.979Z,4.23
2019-05-22T07:11:58.778Z,6.77
2019-05-22T07:14:39.292Z,4.07
2019-05-22T07:17:26.692Z,4.33
2019-05-22T07:20:36.546Z,3.77
2019-05-22T07:23:39.518Z,4.63
2019-05-22T07:26:15.715Z,3.60
2019-05-22T07:29:05.203Z,3.87
2019-05-22T07:32:31.044Z,3.90
2019-05-22T07:35:07.948Z,3.70
2019-05-22T07:38:10.617Z,4.20
2019-05-22T07:41:25.837Z,3.60
2019-05-22T07:44:23.102Z,4.07
2019-05-22T07:47:00.338Z,4.00
2019-05-22T07:49:51.225Z,4.70
2019-05-22T07:56:43.093Z,3.90
2019-05-22T08:00:06.169Z,4.00
2019-05-22T08:02:49.238Z,4.10
2019-05-22T08:05:44.027Z,5.37
2019-05-22T08:08:34.330Z,5.70
2019-05-22T08:11:10.903Z,4.97
2019-05-22T08:14:52.618Z,6.13
2019-05-22T08:20:49.295Z,5.80
2019-05-22T08:27:08.775Z,5.83
2019-05-22T08:30:42.663Z,5.20
2019-05-22T08:33:43.362Z,5.80
2019-05-22T08:36:51.070Z,5.83
2019-05-22T08:39:29.742Z,5.97
2019-05-22T08:42:48.310Z,5.87
2019-05-22T08:45:30.976Z,6.10
2019-05-22T08:48:51.099Z,5.43
2019-05-22T08:51:47.711Z,5.60
2019-05-22T08:55:04.288Z,5.80
2019-05-22T08:57:35.133Z,5.20
2019-05-22T09:00:32.565Z,4.53
2019-05-22T09:03:20.433Z,6.03
2019-05-22T09:06:17.237Z,5.50
2019-05-22T09:09:02.634Z,5.67
2019-05-22T09:11:48.159Z,5.77
2019-05-22T09:14:25.015Z,5.80
2019-05-22T09:17:09.597Z,6.43
2019-05-22T09:19:48.557Z,7.37
2019-05-22T09:22:40.100Z,6.53
2019-05-22T09:25:10.421Z,7.17
2019-05-22T09:27:58.614Z,7.10
2019-05-22T09:30:39.259Z,7.13
2019-05-22T09:33:16.342Z,6.90
2019-05-22T09:35:53.080Z,5.73
2019-05-22T09:38:51.968Z,7.73
2019-05-22T09:41:35.881Z,7.77
2019-05-22T09:44:15.443Z,7.40
2019-05-22T09:46:50.507Z,7.13
2019-05-22T09:49:26.016Z,7.93
2019-05-22T09:52:02.077Z,7.40
2019-05-22T09:54:38.764Z,7.30
2019-05-22T09:57:15.379Z,8.23
2019-05-22T10:03:30.183Z,6.67
2019-05-22T10:07:26.754Z,5.90
2019-05-22T10:15:07.999Z,6.33
2019-05-22T10:17:51.161Z,5.90
2019-05-22T10:21:13.085Z,7.07
2019-05-22T10:23:49.943Z,6.53
2019-05-22T10:26:43.011Z,7.80
2019-05-22T10:29:45.004Z,8.30
2019-05-22T10:32:59.562Z,7.63
2019-05-22T10:36:18.605Z,8.10
2019-05-22T10:39:07.313Z,7.80
2019-05-22T10:41:46.865Z,7.67
2019-05-22T10:44:50.539Z,8.50
2019-05-22T10:47:19.025Z,7.60
2019-05-22T10:50:05.304Z,8.80
2019-05-22T10:52:44.721Z,8.77
2019-05-22T10:55:27.599Z,8.90
2019-05-22T10:58:17.657Z,8.77
2019-05-22T11:01:44.737Z,11.67
2019-05-22T11:07:48.694Z,8.17
2019-05-22T11:10:38.645Z,7.83
2019-05-22T11:13:26.278Z,9.37
2019-05-22T11:16:16.396Z,7.00
2019-05-22T11:19:18.757Z,6.93
2019-05-22T11:22:18.889Z,7.77
2019-05-22T11:25:22.882Z,5.53
2019-05-22T11:28:09.438Z,6.47
2019-05-22T11:31:12.712Z,5.63
2019-05-22T11:33:48.373Z,5.00
2019-05-22T11:36:33.439Z,5.27
2019-05-22T11:39:16.943Z,5.60
2019-05-22T11:41:57.268Z,5.60
2019-05-22T11:44:34.816Z,5.60
2019-05-22T11:47:26.516Z,5.63
2019-05-22T11:50:13.813Z,5.63
2019-05-22T11:53:21.167Z,6.47
2019-05-22T11:56:24.849Z,5.47
2019-05-22T11:59:15.295Z,5.77
2019-05-22T12:02:18.762Z,5.50
2019-05-22T12:04:58.400Z,5.17
2019-05-22T12:07:50.236Z,6.03
2019-05-22T12:10:37.820Z,5.50
2019-05-22T12:13:22.505Z,4.73
2019-05-22T12:15:58.657Z,5.80
2019-05-22T12:18:34.989Z,5.50
2019-05-22T12:21:14.811Z,5.40
2019-05-22T12:23:51.797Z,5.60
2019-05-22T12:26:27.037Z,5.70
2019-05-22T12:29:02.596Z,5.17
2019-05-22T12:31:38.030Z,5.33
2019-05-22T12:34:14.130Z,5.50
2019-05-22T12:36:53.107Z,5.17
2019-05-22T12:39:31.029Z,5.43
2019-05-22T12:42:07.941Z,4.87
2019-05-22T12:44:46.540Z,6.20
2019-05-22T12:47:24.112Z,5.73
2019-05-22T12:49:59.724Z,5.20
2019-05-22T12:52:55.515Z,6.23
2019-05-22T12:55:31.503Z,6.80
2019-05-22T12:58:08.687Z,5.67
2019-05-22T13:01:09.720Z,5.50
2019-05-22T13:03:45.754Z,5.60
2019-05-22T13:06:21.634Z,5.90
2019-05-22T13:09:11.508Z,6.57
2019-05-22T13:11:47.709Z,5.03
2019-05-22T13:14:25.775Z,5.37
2019-05-22T13:17:05.507Z,5.20
2019-05-22T13:19:42.697Z,5.20
2019-05-22T13:22:20.468Z,5.67
2019-05-22T13:25:02.921Z,5.00
2019-05-22T13:27:49.181Z,5.33
2019-05-22T13:30:28.650Z,5.17
2019-05-22T13:33:08.559Z,5.90
2019-05-22T13:35:44.102Z,5.37
2019-05-22T13:38:20.026Z,4.60
2019-05-22T13:40:56.134Z,5.90
2019-05-22T13:43:32.012Z,5.40
2019-05-22T13:46:07.574Z,5.20
2019-05-22T13:48:43.425Z,5.70
2019-05-22T13:51:20.171Z,5.10
2019-05-22T13:53:55.738Z,5.30
2019-05-22T13:56:33.910Z,5.90
2019-05-22T13:59:09.602Z,6.20
2019-05-22T14:01:51.434Z,6.13
2019-05-22T14:04:28.587Z,6.03
2019-05-22T14:07:06.238Z,6.13
2019-05-22T14:09:42.038Z,6.47
2019-05-22T14:12:17.547Z,6.67
2019-05-22T14:14:52.983Z,7.20
2019-05-22T14:17:28.240Z,7.30
2019-05-22T14:20:04.085Z,6.80
2019-05-22T14:22:40.411Z,6.83
2019-05-22T14:25:17.721Z,7.17
2019-05-22T14:27:57.324Z,7.63
2019-05-22T14:30:33.315Z,7.13
2019-05-22T14:33:08.746Z,7.00
2019-05-22T14:35:49.312Z,7.47
2019-05-22T14:38:24.911Z,7.77
2019-05-22T14:41:01.818Z,7.03
2019-05-22T14:43:38.219Z,7.30
2019-05-22T14:46:13.742Z,7.47
2019-05-22T14:48:49.792Z,7.23
2019-05-22T14:51:25.758Z,7.70
2019-05-22T14:54:01.405Z,7.33
2019-05-22T14:56:37.011Z,7.10
2019-05-22T14:59:12.875Z,7.80
2019-05-22T15:01:48.460Z,7.00
2019-05-22T15:04:25.437Z,8.30
2019-05-22T15:07:03.754Z,7.27
2019-05-22T15:09:38.998Z,7.90
2019-05-22T15:12:17.933Z,7.23
2019-05-22T15:14:55.026Z,7.30
2019-05-22T15:17:32.895Z,6.70
2019-05-22T15:20:08.490Z,6.87
2019-05-22T15:22:43.807Z,6.33
2019-05-22T15:25:21.702Z,6.27
2019-05-22T15:27:57.442Z,7.23
2019-05-22T15:30:32.818Z,7.47
2019-05-22T15:33:09.100Z,7.10
2019-05-22T15:35:44.828Z,6.97
2019-05-22T15:38:21.993Z,6.80
2019-05-22T15:40:57.730Z,7.97
2019-05-22T15:43:33.459Z,6.43
2019-05-22T15:46:10.263Z,5.80
2019-05-22T15:48:48.826Z,6.67
2019-05-22T15:51:28.050Z,7.20
2019-05-22T15:54:06.401Z,7.70
2019-05-22T15:56:43.036Z,7.20
2019-05-22T15:59:20.199Z,6.50
2019-05-22T16:01:55.573Z,6.70
2019-05-22T16:04:31.244Z,7.97
2019-05-22T16:07:07.784Z,6.80
2019-05-22T16:09:47.411Z,6.87
2019-05-22T16:12:24.000Z,5.63
2019-05-22T16:15:01.276Z,6.47
2019-05-22T16:17:41.549Z,6.27
2019-05-22T16:20:22.824Z,7.10
2019-05-22T16:23:13.072Z,6.60
2019-05-22T16:25:49.654Z,7.10
2019-05-22T16:28:25.782Z,7.07
2019-05-22T16:31:01.528Z,7.17
2019-05-22T16:33:38.052Z,7.20
2019-05-22T16:36:14.246Z,7.00
2019-05-22T16:38:51.401Z,7.03
2019-05-22T16:41:28.345Z,6.93
2019-05-22T16:44:04.634Z,7.00
2019-05-22T16:46:59.781Z,6.67
2019-05-22T16:49:38.400Z,7.40
2019-05-22T16:52:16.111Z,7.07
2019-05-22T16:54:53.662Z,7.30
2019-05-22T16:57:33.251Z,6.13
2019-05-22T17:00:11.976Z,6.67
2019-05-22T17:02:50.022Z,7.17
2019-05-22T17:05:25.516Z,7.30
2019-05-22T17:08:02.573Z,6.80
2019-05-22T17:10:38.520Z,6.80
2019-05-22T17:13:17.502Z,6.40
2019-05-22T17:15:52.867Z,5.30
2019-05-22T17:18:46.051Z,5.03
2019-05-22T17:21:08.551Z,5.03
2019-05-22T17:23:47.210Z,4.57
2019-05-22T17:26:30.212Z,4.97
2019-05-22T17:29:10.589Z,5.60
2019-05-22T17:31:49.783Z,5.70
2019-05-22T17:34:32.254Z,5.80
2019-05-22T17:37:15.996Z,5.07
2019-05-22T17:39:55.753Z,7.10
2019-05-22T17:42:31.596Z,5.70
2019-05-22T17:45:12.482Z,6.30
2019-05-22T17:47:47.681Z,6.10
2019-05-22T17:50:27.632Z,7.03
2019-05-22T17:53:04.518Z,6.13
2019-05-22T17:55:42.428Z,6.10
2019-05-22T17:58:18.326Z,6.73
2019-05-22T18:00:54.452Z,6.47
2019-05-22T18:03:29.945Z,6.97
2019-05-22T18:06:06.745Z,7.30
2019-05-22T18:08:43.659Z,7.50
2019-05-22T18:11:19.865Z,7.53
2019-05-22T18:14:02.138Z,8.17
2019-05-22T18:16:38.444Z,6.97
2019-05-22T18:19:13.914Z,8.57
2019-05-22T18:21:50.102Z,7.17
2019-05-22T18:24:25.521Z,8.00
2019-05-22T18:27:02.457Z,7.53
2019-05-22T18:29:38.530Z,7.23
2019-05-22T18:32:14.065Z,7.83
2019-05-22T18:34:49.492Z,7.70
2019-05-22T18:37:25.464Z,7.07
2019-05-22T18:40:01.200Z,9.00
2019-05-22T18:42:42.701Z,8.80
2019-05-22T18:45:19.684Z,8.03
2019-05-22T18:47:55.176Z,7.73
2019-05-22T18:50:30.593Z,8.00
2019-05-22T18:53:07.030Z,7.37
2019-05-22T18:55:44.667Z,7.37
2019-05-22T18:58:21.326Z,9.60
2019-05-22T19:00:57.360Z,8.47
2019-05-22T19:03:33.396Z,8.37
2019-05-22T19:06:11.603Z,8.33
2019-05-22T19:08:47.377Z,7.33
2019-05-22T19:11:23.637Z,7.57
2019-05-22T19:13:59.110Z,8.00
2019-05-22T19:16:35.670Z,8.83
2019-05-22T19:19:11.229Z,8.43
2019-05-22T19:21:48.900Z,8.40
2019-05-22T19:24:24.408Z,8.37
2019-05-22T19:26:59.950Z,8.83
2019-05-22T19:29:35.485Z,8.77
2019-05-22T19:32:11.127Z,8.27
2019-05-22T19:34:46.805Z,9.30
2019-05-22T19:37:22.186Z,9.27
2019-05-22T19:39:57.630Z,8.53
2019-05-22T19:42:33.479Z,8.50
2019-05-22T19:45:11.135Z,9.10
2019-05-22T19:47:52.947Z,10.17
2019-05-22T19:50:29.269Z,8.70
2019-05-22T19:53:18.106Z,9.63
2019-05-22T19:55:42.243Z,8.17
2019-05-22T19:58:21.794Z,8.03
2019-05-22T20:00:58.757Z,9.10
2019-05-22T20:03:34.399Z,8.30
2019-05-22T20:06:10.004Z,8.27
2019-05-22T20:08:45.709Z,7.33
2019-05-22T20:11:21.626Z,8.13
2019-05-22T20:13:57.739Z,8.37
2019-05-22T20:16:33.460Z,8.50
2019-05-22T20:19:09.656Z,10.33
2019-05-22T20:21:45.275Z,8.93
2019-05-22T20:24:21.314Z,7.90
2019-05-22T20:26:57.750Z,8.13
2019-05-22T20:29:36.532Z,8.63
2019-05-22T20:32:16.398Z,9.57
2019-05-22T20:34:51.935Z,8.33
2019-05-22T20:37:28.063Z,8.03
2019-05-22T20:40:04.277Z,8.70
2019-05-22T20:42:40.930Z,8.90
2019-05-22T20:45:19.114Z,8.20
2019-05-22T20:48:22.341Z,7.70
2019-05-22T20:50:59.852Z,8.50
2019-05-22T20:53:52.740Z,7.83
2019-05-22T20:56:18.516Z,8.57
2019-05-22T20:58:54.451Z,8.13
2019-05-22T21:01:30.382Z,8.00
2019-05-22T21:04:08.987Z,7.53
2019-05-22T21:07:00.187Z,8.47
2019-05-22T21:09:35.773Z,8.20
2019-05-22T21:12:13.960Z,8.07
2019-05-22T21:14:49.754Z,7.47
2019-05-22T21:17:26.237Z,8.23
2019-05-22T21:20:02.215Z,7.80
2019-05-22T21:22:38.586Z,6.80
2019-05-22T21:25:16.483Z,7.73
2019-05-22T21:27:53.121Z,6.20
2019-05-22T21:30:29.396Z,7.40
2019-05-22T21:33:05.584Z,6.97
2019-05-22T21:35:43.310Z,7.10
2019-05-22T21:38:19.576Z,7.00
2019-05-22T21:40:56.686Z,8.10
2019-05-22T21:43:32.623Z,7.67
2019-05-22T21:46:08.937Z,7.23
2019-05-22T21:48:44.979Z,6.90
2019-05-22T21:51:20.616Z,7.17
2019-05-22T21:53:57.421Z,7.00
2019-05-22T21:56:33.558Z,7.90
2019-05-22T21:59:09.892Z,7.60
2019-05-22T22:01:53.204Z,7.67
2019-05-22T22:04:35.278Z,8.20
2019-05-22T22:07:11.552Z,7.67
2019-05-22T22:09:48.102Z,8.13
2019-05-22T22:12:27.697Z,8.07
2019-05-22T22:15:04.774Z,7.77
2019-05-22T22:17:42.424Z,7.77
2019-05-22T22:20:20.082Z,8.40
2019-05-22T22:22:56.554Z,8.27
2019-05-22T22:25:33.160Z,7.67
2019-05-22T22:28:13.131Z,7.53
2019-05-22T22:30:52.229Z,9.03
2019-05-22T22:33:31.899Z,8.10
2019-05-22T22:36:09.925Z,8.80
2019-05-22T22:38:46.693Z,7.87
2019-05-22T22:41:22.714Z,8.20
2019-05-22T22:43:58.869Z,8.53
2019-05-22T22:46:41.651Z,9.10
2019-05-22T22:49:20.582Z,8.80
2019-05-22T22:51:56.378Z,10.37
2019-05-22T22:54:32.348Z,8.00
2019-05-22T22:57:09.215Z,8.80
2019-05-22T22:59:44.864Z,9.67
2019-05-22T23:02:23.767Z,9.43
2019-05-22T23:05:02.521Z,9.10
2019-05-22T23:07:38.918Z,8.47
2019-05-22T23:10:15.618Z,8.80
2019-05-22T23:12:54.432Z,8.10
2019-05-22T23:15:30.292Z,8.17
2019-05-22T23:18:06.878Z,8.43
2019-05-22T23:20:41.202Z,8.20
2019-05-22T23:23:15.474Z,7.07
2019-05-22T23:25:51.053Z,9.03
2019-05-22T23:28:34.711Z,8.63
2019-05-22T23:31:05.392Z,8.53
2019-05-22T23:33:41.042Z,9.67
2019-05-22T23:36:17.479Z,9.30
2019-05-22T23:38:59.653Z,9.40
2019-05-22T23:41:37.416Z,8.60
2019-05-22T23:44:16.242Z,9.43
2019-05-22T23:46:52.620Z,8.37
2019-05-22T23:49:28.483Z,8.80
2019-05-22T23:52:04.816Z,9.17
2019-05-22T23:54:44.011Z,9.07
2019-05-22T23:57:20.728Z,9.17
